Time;durP1;ratioP1;P1;durP2;ratioP2;P2;SDS_P1;SDS_P2;PMS_P1;PMS_P2;Temp;Humidity;BMP_temperature;BMP_pressure;BME280_temperature;BME280_humidity;BME280_pressure;Samples;Min_cycle;Max_cycle;Signal;HPM_P1;HPM_P2
2023/10/28 00:01:12;;;;;;;5.45;1.80;;;12.70;99.90;;;;;;4973742;28;20569;-77
2023/10/28 00:03:38;;;;;;;5.73;2.30;;;12.60;99.90;;;;;;4971747;28;20190;-77
2023/10/28 00:06:04;;;;;;;2.55;1.50;;;12.50;99.90;;;;;;4971493;28;21176;-77
2023/10/28 00:08:30;;;;;;;3.00;1.60;;;12.50;99.90;;;;;;4973152;28;20189;-77
2023/10/28 00:10:56;;;;;;;5.03;2.10;;;12.50;99.90;;;;;;4978287;28;20615;-77
2023/10/28 00:13:22;;;;;;;6.83;1.73;;;12.50;99.90;;;;;;4978796;28;20586;-77
2023/10/28 00:15:48;;;;;;;4.68;1.52;;;12.40;99.90;;;;;;4971675;28;20199;-77
2023/10/28 00:18:14;;;;;;;4.27;1.90;;;12.40;99.90;;;;;;4975887;28;20176;-77
2023/10/28 00:20:41;;;;;;;3.43;1.60;;;12.40;99.90;;;;;;4991807;28;20198;-76
2023/10/28 00:23:08;;;;;;;4.70;1.83;;;12.50;99.90;;;;;;4983202;28;20634;-77
2023/10/28 00:25:34;;;;;;;4.07;2.10;;;12.50;99.90;;;;;;4971898;28;21052;-76
2023/10/28 00:28:00;;;;;;;3.63;1.37;;;12.50;99.90;;;;;;4970835;28;20772;-77
2023/10/28 00:30:26;;;;;;;5.53;1.73;;;12.50;99.90;;;;;;4971466;28;20226;-77
2023/10/28 00:32:53;;;;;;;4.73;1.90;;;12.60;99.90;;;;;;4954740;28;21011;-77
2023/10/28 00:35:21;;;;;;;6.15;1.50;;;12.60;99.90;;;;;;4970775;28;20587;-77
2023/10/28 00:37:47;;;;;;;3.03;1.60;;;12.60;99.90;;;;;;4954219;28;20274;-77
2023/10/28 00:40:13;;;;;;;3.67;1.60;;;12.60;99.90;;;;;;4980321;28;20694;-77
2023/10/28 00:42:39;;;;;;;3.67;1.30;;;12.70;99.90;;;;;;4970759;28;21277;-77
2023/10/28 00:45:08;;;;;;;3.00;1.37;;;12.70;99.90;;;;;;4970487;28;20682;-77
2023/10/28 00:47:38;;;;;;;4.67;1.73;;;12.70;99.90;;;;;;4967459;28;20287;-77
2023/10/28 00:50:12;;;;;;;3.00;1.50;;;12.70;99.90;;;;;;4954347;28;20698;-77
2023/10/28 00:52:41;;;;;;;3.90;1.60;;;12.70;99.90;;;;;;4971834;28;20186;-77
2023/10/28 00:55:11;;;;;;;3.73;2.50;;;12.80;99.90;;;;;;4985006;28;20618;-77
2023/10/28 00:57:41;;;;;;;3.45;1.60;;;12.70;99.90;;;;;;4996229;28;20694;-77
2023/10/28 01:00:07;;;;;;;3.43;1.30;;;12.70;99.90;;;;;;4970352;28;20171;-77
2023/10/28 01:02:38;;;;;;;3.08;1.75;;;12.70;99.90;;;;;;4970261;28;20973;-77
2023/10/28 01:05:06;;;;;;;4.38;1.67;;;12.70;99.90;;;;;;4953836;28;20172;-74
2023/10/28 01:07:32;;;;;;;2.77;1.67;;;12.60;99.90;;;;;;4975241;28;20164;-74
2023/10/28 01:09:58;;;;;;;4.17;1.97;;;12.60;99.90;;;;;;4953130;28;20605;-74
2023/10/28 01:12:26;;;;;;;3.13;2.00;;;12.60;99.90;;;;;;4969115;28;20701;-74
2023/10/28 01:14:53;;;;;;;4.20;1.60;;;12.60;99.90;;;;;;4937944;28;20662;-74
2023/10/28 01:17:25;;;;;;;2.73;1.40;;;12.60;99.90;;;;;;4952791;28;20953;-75
2023/10/28 01:19:52;;;;;;;2.50;1.30;;;12.60;99.90;;;;;;4953273;28;20666;-75
2023/10/28 01:22:18;;;;;;;5.83;1.83;;;12.60;99.90;;;;;;4971838;28;20603;-73
2023/10/28 01:24:44;;;;;;;3.10;1.43;;;12.50;99.90;;;;;;4956792;28;20607;-74
2023/10/28 01:27:10;;;;;;;3.00;1.57;;;12.60;99.90;;;;;;4973038;28;20627;-74
2023/10/28 01:29:36;;;;;;;2.27;1.30;;;12.60;99.90;;;;;;4974015;28;20178;-73
2023/10/28 01:32:05;;;;;;;2.33;1.30;;;12.60;99.90;;;;;;4972280;28;20191;-71
2023/10/28 01:34:32;;;;;;;3.00;1.10;;;12.60;99.90;;;;;;4956917;28;20595;-71
2023/10/28 01:36:58;;;;;;;2.97;1.70;;;12.60;99.90;;;;;;4972649;28;21079;-71
2023/10/28 01:39:24;;;;;;;7.03;1.57;;;12.60;99.90;;;;;;4972315;28;20663;-72
2023/10/28 01:41:49;;;;;;;2.70;1.20;;;12.60;99.90;;;;;;4988999;28;20627;-72
2023/10/28 01:44:16;;;;;;;4.67;1.87;;;12.60;99.90;;;;;;4956884;28;21192;-72
2023/10/28 01:46:42;;;;;;;3.40;1.30;;;12.60;99.90;;;;;;4970610;28;20209;-72
2023/10/28 01:49:09;;;;;;;3.20;1.50;;;12.60;99.90;;;;;;4956872;28;20601;-72
2023/10/28 01:51:36;;;;;;;3.33;1.43;;;12.60;99.90;;;;;;4974591;28;20622;-72
2023/10/28 01:54:02;;;;;;;2.73;1.80;;;12.60;99.90;;;;;;4971914;28;21006;-72
2023/10/28 01:56:28;;;;;;;3.30;1.43;;;12.70;99.90;;;;;;4940639;28;20583;-73
2023/10/28 01:58:55;;;;;;;1.80;1.20;;;12.70;99.90;;;;;;4972577;28;20664;-73
2023/10/28 02:01:25;;;;;;;2.93;1.10;;;12.70;99.90;;;;;;4956445;28;20746;-73
2023/10/28 02:03:51;;;;;;;2.20;1.07;;;12.80;99.90;;;;;;4991521;28;20625;-73
2023/10/28 02:06:17;;;;;;;4.95;1.40;;;12.80;99.90;;;;;;4977505;28;20650;-73
2023/10/28 02:08:42;;;;;;;2.00;1.33;;;12.80;99.90;;;;;;4956547;28;20230;-73
2023/10/28 02:11:08;;;;;;;4.00;1.80;;;12.90;99.90;;;;;;4972251;28;20643;-73
2023/10/28 02:13:35;;;;;;;4.37;1.33;;;12.90;99.90;;;;;;4972207;28;20211;-73
2023/10/28 02:16:01;;;;;;;4.00;1.40;;;12.90;99.90;;;;;;4960687;28;20185;-72
2023/10/28 02:18:27;;;;;;;2.77;1.67;;;12.90;99.90;;;;;;4959683;28;20584;-73
2023/10/28 02:20:54;;;;;;;3.93;1.60;;;12.90;99.90;;;;;;4973371;28;20619;-73
2023/10/28 02:23:20;;;;;;;4.93;1.63;;;13.00;99.90;;;;;;4972387;28;20230;-72
2023/10/28 02:25:46;;;;;;;3.60;1.50;;;13.00;99.90;;;;;;4955905;28;20682;-72
2023/10/28 02:28:12;;;;;;;2.33;1.90;;;13.00;99.90;;;;;;4981274;28;20583;-72
2023/10/28 02:30:41;;;;;;;2.77;1.10;;;13.00;99.90;;;;;;4971792;28;20622;-72
2023/10/28 02:33:07;;;;;;;2.47;1.47;;;13.00;99.90;;;;;;4955718;28;20599;-72
2023/10/28 02:35:36;;;;;;;3.43;1.60;;;13.00;99.90;;;;;;4983797;28;20640;-73
2023/10/28 02:38:02;;;;;;;2.03;1.20;;;13.00;99.90;;;;;;4959601;28;20585;-72
2023/10/28 02:40:27;;;;;;;5.60;1.80;;;13.00;99.90;;;;;;4976005;28;20631;-72
2023/10/28 02:42:53;;;;;;;4.10;2.00;;;13.00;99.90;;;;;;4955850;28;20194;-72
2023/10/28 02:45:19;;;;;;;4.27;2.47;;;13.00;99.90;;;;;;4956316;28;20188;-72
2023/10/28 02:47:45;;;;;;;4.10;1.57;;;13.00;99.90;;;;;;4988262;28;20674;-73
2023/10/28 02:50:11;;;;;;;3.20;1.50;;;12.90;99.90;;;;;;4971738;28;20187;-73
2023/10/28 02:52:37;;;;;;;1.90;1.30;;;13.00;99.90;;;;;;4971765;28;20191;-73
2023/10/28 02:55:03;;;;;;;5.53;2.07;;;13.00;99.90;;;;;;4972969;28;20646;-76
2023/10/28 02:57:29;;;;;;;3.63;1.70;;;13.00;99.90;;;;;;4971578;28;20218;-76
2023/10/28 02:59:54;;;;;;;2.43;1.80;;;12.90;99.90;;;;;;4987558;28;20599;-76
2023/10/28 03:02:20;;;;;;;3.30;1.77;;;13.00;99.90;;;;;;4969834;28;20190;-77
2023/10/28 03:04:46;;;;;;;3.40;1.50;;;13.00;99.90;;;;;;4972951;28;20218;-76
2023/10/28 03:07:12;;;;;;;2.67;1.70;;;13.00;99.90;;;;;;4972630;28;20207;-77
2023/10/28 03:09:39;;;;;;;2.67;1.50;;;13.00;99.90;;;;;;4955260;28;20645;-76
2023/10/28 03:12:05;;;;;;;4.80;1.57;;;13.00;99.90;;;;;;4971528;28;20649;-76
2023/10/28 03:14:30;;;;;;;3.67;1.87;;;13.00;99.90;;;;;;4987459;28;20588;-76
2023/10/28 03:16:56;;;;;;;2.20;1.43;;;13.00;99.90;;;;;;4971078;28;20583;-76
2023/10/28 03:19:22;;;;;;;2.60;1.10;;;12.90;99.90;;;;;;4955147;28;20215;-76
2023/10/28 03:21:47;;;;;;;2.70;1.20;;;12.90;99.90;;;;;;4972403;28;20208;-76
2023/10/28 03:24:14;;;;;;;2.40;0.97;;;12.90;99.90;;;;;;4955034;28;20237;-76
2023/10/28 03:26:40;;;;;;;2.27;0.90;;;12.90;99.90;;;;;;4970692;28;20646;-77
2023/10/28 03:29:06;;;;;;;1.43;0.80;;;12.80;99.90;;;;;;4955112;28;20820;-76
2023/10/28 03:31:32;;;;;;;2.00;0.70;;;12.80;99.90;;;;;;4970877;28;20611;-76
2023/10/28 03:33:57;;;;;;;1.90;0.57;;;12.70;99.90;;;;;;4972221;28;20628;-76
2023/10/28 03:36:24;;;;;;;4.50;0.60;;;12.70;99.90;;;;;;4978441;28;20214;-76
2023/10/28 03:38:50;;;;;;;2.38;0.90;;;12.60;99.90;;;;;;4981855;28;20587;-76
2023/10/28 03:41:15;;;;;;;1.40;0.70;;;12.60;99.90;;;;;;4971341;28;20206;-76
2023/10/28 03:43:41;;;;;;;1.30;0.60;;;12.60;99.90;;;;;;4969933;28;20191;-76
2023/10/28 03:46:07;;;;;;;1.20;0.70;;;12.50;99.90;;;;;;4970528;28;21282;-76
2023/10/28 03:48:34;;;;;;;2.07;1.47;;;12.50;99.90;;;;;;4979298;28;20708;-76
2023/10/28 03:51:04;;;;;;;2.67;0.70;;;12.50;99.90;;;;;;4971026;28;20250;-76
2023/10/28 03:53:30;;;;;;;1.57;0.70;;;12.40;99.90;;;;;;4970491;28;20678;-76
2023/10/28 03:55:56;;;;;;;1.95;0.70;;;12.40;99.90;;;;;;4969451;28;20622;-76
2023/10/28 03:58:22;;;;;;;1.50;0.82;;;12.30;99.90;;;;;;4969070;28;20230;-75
2023/10/28 04:00:53;;;;;;;1.20;0.60;;;12.30;99.90;;;;;;4969877;28;20219;-77
2023/10/28 04:03:23;;;;;;;1.20;0.68;;;12.30;99.90;;;;;;4971745;28;20614;-77
2023/10/28 04:05:49;;;;;;;1.52;0.60;;;12.20;99.90;;;;;;4971530;28;20215;-76
2023/10/28 04:08:15;;;;;;;1.43;0.60;;;12.20;99.90;;;;;;4954215;28;20182;-76
2023/10/28 04:10:41;;;;;;;2.30;0.80;;;12.20;99.90;;;;;;4982454;28;20611;-77
2023/10/28 04:13:07;;;;;;;2.10;0.90;;;12.10;99.90;;;;;;4971604;28;20584;-77
2023/10/28 04:15:33;;;;;;;1.70;1.30;;;12.10;99.90;;;;;;4970437;28;21276;-76
2023/10/28 04:17:58;;;;;;;3.25;0.80;;;12.00;99.90;;;;;;4953973;28;20187;-76
2023/10/28 04:20:24;;;;;;;2.43;0.80;;;12.00;99.90;;;;;;4970160;28;20744;-76
2023/10/28 04:22:50;;;;;;;1.57;0.87;;;11.90;99.90;;;;;;4972993;28;20188;-77
2023/10/28 04:25:15;;;;;;;1.80;0.93;;;11.90;99.90;;;;;;4960849;28;20176;-77
2023/10/28 04:27:41;;;;;;;1.77;0.80;;;11.90;99.90;;;;;;4986236;28;20199;-77
2023/10/28 04:30:11;;;;;;;1.67;0.70;;;11.90;99.90;;;;;;4970098;28;20660;-76
2023/10/28 04:32:40;;;;;;;3.08;1.10;;;11.90;99.90;;;;;;4971578;28;20247;-77
2023/10/28 04:35:06;;;;;;;1.60;1.10;;;11.90;99.90;;;;;;4979523;28;20219;-76
2023/10/28 04:37:31;;;;;;;1.63;0.82;;;11.90;99.90;;;;;;4953815;28;20206;-77
2023/10/28 04:39:57;;;;;;;1.80;0.60;;;11.90;99.90;;;;;;4969985;28;20673;-76
2023/10/28 04:42:23;;;;;;;1.60;0.80;;;11.90;99.90;;;;;;4971351;28;20637;-76
2023/10/28 04:44:49;;;;;;;1.77;0.80;;;12.00;99.90;;;;;;4971165;28;20642;-76
2023/10/28 04:47:15;;;;;;;2.47;0.80;;;12.00;99.90;;;;;;4984882;28;20290;-76
2023/10/28 04:49:41;;;;;;;1.70;0.80;;;12.00;99.90;;;;;;4986186;28;20507;-76
2023/10/28 04:52:08;;;;;;;4.03;0.90;;;12.00;99.90;;;;;;4969938;28;21366;-76
2023/10/28 04:54:35;;;;;;;1.90;0.70;;;12.00;99.90;;;;;;4970225;28;20694;-76
2023/10/28 04:57:02;;;;;;;1.40;0.63;;;12.00;99.90;;;;;;4974713;28;20591;-76
2023/10/28 04:59:29;;;;;;;1.53;0.80;;;12.10;99.90;;;;;;4974769;28;20954;-76
2023/10/28 05:01:55;;;;;;;1.38;0.80;;;12.10;99.90;;;;;;4973165;28;20673;-76
2023/10/28 05:04:23;;;;;;;1.60;0.80;;;12.10;99.90;;;;;;4975200;28;20176;-74
2023/10/28 05:06:49;;;;;;;1.70;1.00;;;12.10;99.90;;;;;;4973375;28;20304;-74
2023/10/28 05:09:15;;;;;;;3.78;1.02;;;12.10;99.90;;;;;;4977869;28;20179;-74
2023/10/28 05:11:42;;;;;;;1.40;0.80;;;12.10;99.90;;;;;;4974555;28;20200;-74
2023/10/28 05:14:09;;;;;;;1.50;1.00;;;12.10;99.90;;;;;;4966562;28;20171;-73
2023/10/28 05:16:35;;;;;;;2.10;1.00;;;12.10;99.90;;;;;;4973164;28;20167;-74
2023/10/28 05:19:01;;;;;;;2.47;0.80;;;12.10;99.90;;;;;;4974342;28;20627;-73
2023/10/28 05:21:27;;;;;;;2.23;0.90;;;12.10;99.90;;;;;;4986981;28;20194;-74
2023/10/28 05:23:52;;;;;;;2.07;1.00;;;12.10;99.90;;;;;;4976413;28;20549;-74
2023/10/28 05:26:18;;;;;;;1.70;1.00;;;12.10;99.90;;;;;;4974335;28;20211;-74
2023/10/28 05:28:46;;;;;;;1.83;0.70;;;12.10;99.90;;;;;;4973139;28;20722;-74
2023/10/28 05:31:14;;;;;;;2.80;0.90;;;12.10;99.90;;;;;;4976684;28;20726;-75
2023/10/28 05:33:39;;;;;;;1.75;0.82;;;12.10;99.90;;;;;;4989664;28;20168;-74
2023/10/28 05:36:06;;;;;;;2.40;0.70;;;12.20;99.90;;;;;;4989025;28;20183;-73
2023/10/28 05:38:31;;;;;;;2.35;0.70;;;12.20;99.90;;;;;;4974256;28;20183;-74
2023/10/28 05:40:57;;;;;;;2.00;1.00;;;12.20;99.90;;;;;;4972666;28;20254;-74
2023/10/28 05:43:23;;;;;;;1.90;1.40;;;12.20;99.90;;;;;;4962271;28;21157;-74
2023/10/28 05:45:49;;;;;;;2.07;0.70;;;12.20;99.90;;;;;;4983388;28;20765;-74
2023/10/28 05:48:14;;;;;;;1.80;0.70;;;12.20;99.90;;;;;;4972486;28;20171;-74
2023/10/28 05:50:40;;;;;;;2.60;0.83;;;12.20;99.90;;;;;;4973952;28;20290;-74
2023/10/28 05:53:06;;;;;;;2.17;0.80;;;12.20;99.90;;;;;;4956604;28;20176;-73
2023/10/28 05:55:31;;;;;;;1.70;0.80;;;12.20;99.90;;;;;;4973535;28;20251;-74
2023/10/28 05:57:57;;;;;;;2.80;0.90;;;12.20;99.90;;;;;;4973655;28;20218;-75
2023/10/28 06:00:23;;;;;;;1.70;0.70;;;12.20;99.90;;;;;;4972367;28;20215;-74
2023/10/28 06:02:49;;;;;;;2.33;0.80;;;12.20;99.90;;;;;;4972647;28;20238;-74
2023/10/28 06:05:15;;;;;;;1.30;0.80;;;12.20;99.90;;;;;;4972601;28;20183;-77
2023/10/28 06:07:47;;;;;;;2.40;0.70;;;12.20;99.90;;;;;;4987111;28;20607;-77
2023/10/28 06:10:13;;;;;;;2.53;0.73;;;12.20;99.90;;;;;;4973486;28;20579;-77
2023/10/28 06:12:39;;;;;;;1.40;0.70;;;12.20;99.90;;;;;;4973227;28;20172;-77
2023/10/28 06:15:06;;;;;;;1.40;0.80;;;12.20;99.90;;;;;;4973371;28;20207;-77
2023/10/28 06:17:31;;;;;;;1.90;0.85;;;12.20;99.90;;;;;;4961976;28;20681;-77
2023/10/28 06:19:59;;;;;;;1.80;1.00;;;12.20;99.90;;;;;;4974117;28;20267;-77
2023/10/28 06:22:24;;;;;;;1.40;0.70;;;12.20;99.90;;;;;;4972191;28;20183;-77
2023/10/28 06:24:50;;;;;;;5.03;0.80;;;12.20;99.90;;;;;;4972017;28;20195;-77
2023/10/28 06:27:16;;;;;;;1.73;0.73;;;12.10;99.90;;;;;;4972672;28;20211;-77
2023/10/28 06:29:41;;;;;;;2.80;0.70;;;12.20;99.90;;;;;;4980772;28;20190;-77
2023/10/28 06:32:08;;;;;;;1.40;0.80;;;12.20;99.90;;;;;;4973394;28;20199;-77
2023/10/28 06:34:34;;;;;;;2.38;0.70;;;12.20;99.90;;;;;;4973179;28;20784;-77
2023/10/28 06:37:00;;;;;;;2.03;0.90;;;12.20;99.90;;;;;;4971398;28;20672;-77
2023/10/28 06:39:26;;;;;;;1.88;0.90;;;12.20;99.90;;;;;;4973138;28;20180;-77
2023/10/28 06:41:51;;;;;;;2.83;0.60;;;12.20;99.90;;;;;;4987407;28;20191;-78
2023/10/28 06:44:22;;;;;;;4.75;0.70;;;12.30;99.90;;;;;;4955798;28;20588;-78
2023/10/28 06:46:48;;;;;;;1.30;0.70;;;12.30;99.90;;;;;;4972714;28;20225;-78
2023/10/28 06:49:13;;;;;;;2.40;0.80;;;12.30;99.90;;;;;;4955913;28;20171;-79
2023/10/28 06:51:39;;;;;;;2.03;0.80;;;12.30;99.90;;;;;;4971920;28;20200;-77
2023/10/28 06:54:06;;;;;;;1.87;0.90;;;12.30;99.90;;;;;;4979764;28;20175;-77
2023/10/28 06:56:32;;;;;;;1.83;0.80;;;12.40;99.90;;;;;;4969056;28;20598;-77
2023/10/28 06:58:58;;;;;;;2.03;0.90;;;12.40;99.90;;;;;;4953539;28;20214;-77
2023/10/28 07:01:23;;;;;;;2.70;0.80;;;12.40;99.90;;;;;;4971361;28;20247;-77
2023/10/28 07:03:49;;;;;;;1.70;0.70;;;12.40;99.90;;;;;;4968366;28;20181;-73
2023/10/28 07:06:16;;;;;;;1.80;0.90;;;12.40;99.90;;;;;;4972546;28;20634;-74
2023/10/28 07:08:42;;;;;;;4.13;1.00;;;12.50;99.90;;;;;;4968682;28;20180;-73
2023/10/28 07:11:08;;;;;;;4.23;0.90;;;12.50;99.90;;;;;;4971734;28;20250;-74
2023/10/28 07:13:33;;;;;;;1.70;0.90;;;12.60;99.90;;;;;;4970591;28;20614;-74
2023/10/28 07:16:03;;;;;;;2.30;1.00;;;12.60;99.90;;;;;;5003552;28;20273;-74
2023/10/28 07:18:32;;;;;;;2.25;0.80;;;12.60;99.90;;;;;;4976301;28;20180;-74
2023/10/28 07:21:00;;;;;;;3.80;1.20;;;12.60;99.90;;;;;;4982748;28;20282;-73
2023/10/28 07:23:26;;;;;;;1.50;0.80;;;12.70;99.90;;;;;;4977348;28;20579;-74
2023/10/28 07:25:57;;;;;;;2.90;1.00;;;12.70;99.90;;;;;;4988731;28;20638;-74
2023/10/28 07:28:24;;;;;;;2.00;0.80;;;12.70;99.90;;;;;;4990458;28;20609;-74
2023/10/28 07:30:51;;;;;;;2.17;1.00;;;12.60;99.90;;;;;;4971337;28;20203;-74
2023/10/28 07:33:21;;;;;;;1.75;1.00;;;12.70;99.90;;;;;;4975086;28;20650;-73
2023/10/28 07:35:50;;;;;;;1.70;1.10;;;12.60;99.90;;;;;;4971061;28;20738;-73
2023/10/28 07:38:17;;;;;;;2.23;1.10;;;12.60;99.90;;;;;;4972028;28;20584;-73
2023/10/28 07:40:47;;;;;;;2.67;1.13;;;12.50;99.90;;;;;;4972357;28;21044;-73
2023/10/28 07:43:14;;;;;;;2.22;1.15;;;12.50;99.90;;;;;;4989989;28;20578;-73
2023/10/28 07:45:41;;;;;;;2.40;1.40;;;12.40;99.90;;;;;;4990134;28;20206;-74
2023/10/28 07:48:07;;;;;;;2.80;1.02;;;12.40;99.90;;;;;;4990083;28;20617;-74
2023/10/28 07:50:37;;;;;;;1.50;0.90;;;12.30;99.90;;;;;;4991465;28;20238;-74
2023/10/28 07:53:06;;;;;;;1.50;0.80;;;12.30;99.90;;;;;;4991511;28;20194;-73
2023/10/28 07:55:32;;;;;;;2.17;0.80;;;12.30;99.90;;;;;;4986697;28;20198;-73
2023/10/28 07:57:58;;;;;;;1.90;0.80;;;12.30;99.90;;;;;;4991198;28;20233;-73
2023/10/28 08:00:24;;;;;;;1.83;0.90;;;12.30;99.90;;;;;;4991095;28;20206;-73
2023/10/28 08:02:51;;;;;;;2.20;0.90;;;12.30;99.90;;;;;;4991522;28;20653;-73
2023/10/28 08:05:17;;;;;;;1.83;0.80;;;12.30;99.90;;;;;;4988581;28;20187;-76
2023/10/28 08:07:42;;;;;;;1.52;0.93;;;12.30;99.90;;;;;;4984826;28;20182;-76
2023/10/28 08:10:09;;;;;;;2.90;1.00;;;12.30;99.90;;;;;;4979496;28;20266;-75
2023/10/28 08:12:36;;;;;;;1.40;0.70;;;12.40;99.90;;;;;;4988653;28;20195;-76
2023/10/28 08:15:07;;;;;;;1.88;0.90;;;12.40;99.90;;;;;;4991074;28;20179;-76
2023/10/28 08:17:34;;;;;;;1.60;0.70;;;12.40;99.90;;;;;;4989785;28;20175;-76
2023/10/28 08:20:00;;;;;;;2.05;0.90;;;12.40;99.90;;;;;;4991035;28;20590;-76
2023/10/28 08:22:26;;;;;;;1.60;0.80;;;12.40;99.90;;;;;;4991238;28;20209;-76
2023/10/28 08:24:51;;;;;;;1.53;0.90;;;12.50;99.90;;;;;;4991277;28;20994;-76
2023/10/28 08:27:18;;;;;;;1.40;0.70;;;12.50;99.90;;;;;;5006050;28;20708;-76
2023/10/28 08:29:44;;;;;;;1.40;0.77;;;12.60;99.90;;;;;;4984111;28;20594;-76
2023/10/28 08:32:10;;;;;;;6.78;0.82;;;12.60;99.90;;;;;;4992586;28;20625;-76
2023/10/28 08:34:36;;;;;;;1.65;0.80;;;12.60;99.90;;;;;;4995110;28;20171;-75
2023/10/28 08:37:03;;;;;;;3.33;0.97;;;12.60;99.90;;;;;;4993601;28;20217;-76
2023/10/28 08:39:29;;;;;;;3.45;1.60;;;12.70;99.90;;;;;;4994131;28;20190;-76
2023/10/28 08:41:56;;;;;;;4.07;0.93;;;12.70;99.90;;;;;;4993885;28;20292;-76
2023/10/28 08:44:27;;;;;;;1.50;0.80;;;12.70;99.90;;;;;;4991996;28;20195;-76
2023/10/28 08:46:56;;;;;;;1.50;0.73;;;12.80;99.90;;;;;;4995145;28;20641;-76
2023/10/28 08:49:25;;;;;;;3.20;0.80;;;12.80;99.90;;;;;;4995155;28;21196;-76
2023/10/28 08:51:58;;;;;;;2.70;0.90;;;12.80;99.90;;;;;;4994930;28;20609;-76
2023/10/28 08:54:27;;;;;;;1.70;0.80;;;12.90;99.90;;;;;;4993545;28;20596;-76
2023/10/28 08:56:56;;;;;;;1.80;0.70;;;12.90;99.90;;;;;;4994722;28;20586;-76
2023/10/28 08:59:22;;;;;;;3.27;1.10;;;12.90;99.90;;;;;;4990757;28;20581;-76
2023/10/28 09:01:48;;;;;;;2.57;0.90;;;13.00;99.90;;;;;;4993247;28;20636;-77
2023/10/28 09:04:21;;;;;;;1.43;0.87;;;13.00;99.90;;;;;;4994386;28;21026;-73
2023/10/28 09:06:48;;;;;;;3.00;1.40;;;13.00;99.90;;;;;;4992997;28;20206;-73
2023/10/28 09:09:17;;;;;;;2.30;1.00;;;13.10;99.90;;;;;;4994431;28;20669;-72
2023/10/28 09:11:43;;;;;;;2.23;1.30;;;13.10;99.90;;;;;;4983885;28;21249;-72
2023/10/28 09:14:09;;;;;;;3.03;0.83;;;13.20;99.90;;;;;;4994118;28;20582;-72
2023/10/28 09:16:35;;;;;;;3.20;0.90;;;13.30;99.90;;;;;;4992658;28;20250;-73
2023/10/28 09:19:03;;;;;;;2.83;1.17;;;13.30;99.90;;;;;;4976907;28;20593;-72
2023/10/28 09:21:30;;;;;;;1.70;1.03;;;13.40;99.90;;;;;;4976760;28;20630;-73
2023/10/28 09:24:02;;;;;;;3.60;1.40;;;13.40;99.90;;;;;;4992959;28;20589;-73
2023/10/28 09:26:31;;;;;;;2.87;1.00;;;13.50;99.90;;;;;;4993867;28;21045;-72
2023/10/28 09:28:58;;;;;;;2.80;1.30;;;13.60;99.90;;;;;;4992922;28;21154;-72
2023/10/28 09:31:25;;;;;;;2.37;1.10;;;13.60;99.90;;;;;;4992564;28;20606;-73
2023/10/28 09:33:51;;;;;;;2.33;0.90;;;13.70;99.90;;;;;;4992726;28;21017;-73
2023/10/28 09:36:17;;;;;;;2.00;1.30;;;13.80;99.90;;;;;;4993438;28;20605;-73
2023/10/28 09:38:45;;;;;;;2.20;0.80;;;13.90;99.90;;;;;;4993915;28;20586;-73
2023/10/28 09:41:12;;;;;;;1.63;0.80;;;14.00;99.90;;;;;;4992855;28;20980;-73
2023/10/28 09:43:38;;;;;;;1.90;0.70;;;14.20;99.90;;;;;;4992435;28;20674;-73
2023/10/28 09:46:05;;;;;;;1.53;0.70;;;14.30;99.90;;;;;;5008865;28;20729;-73
2023/10/28 09:48:33;;;;;;;3.43;0.97;;;14.40;99.90;;;;;;5005800;28;20174;-73
2023/10/28 09:50:59;;;;;;;1.60;0.90;;;14.60;99.90;;;;;;4973173;28;20633;-73
2023/10/28 09:53:34;;;;;;;1.80;0.83;;;14.70;99.90;;;;;;4956904;28;21200;-73
2023/10/28 09:56:04;;;;;;;3.03;0.70;;;14.80;99.90;;;;;;4969282;28;20183;-73
2023/10/28 09:59:00;;;;;;;1.73;0.70;;;14.90;99.90;;;;;;4980067;28;20614;-74
2023/10/28 10:01:45;;;;;;;2.50;0.80;;;15.00;99.90;;;;;;4988755;28;20740;-73
2023/10/28 10:04:19;;;;;;;3.60;0.90;;;15.10;99.90;;;;;;4991930;28;20644;-74
2023/10/28 10:06:45;;;;;;;1.90;0.70;;;15.10;99.90;;;;;;4983887;28;21265;-74
2023/10/28 10:09:18;;;;;;;1.90;0.80;;;15.20;99.90;;;;;;4992135;28;20587;-73
2023/10/28 10:11:44;;;;;;;1.50;0.77;;;15.30;99.90;;;;;;4982143;28;20622;-73
2023/10/28 10:14:11;;;;;;;2.03;0.90;;;15.40;99.90;;;;;;4983876;28;20581;-73
2023/10/28 10:16:44;;;;;;;2.00;0.63;;;15.60;99.90;;;;;;4983543;28;20183;-73
2023/10/28 10:19:12;;;;;;;2.33;0.70;;;15.80;99.90;;;;;;4991952;28;20656;-73
2023/10/28 10:21:47;;;;;;;1.80;0.70;;;16.30;99.90;;;;;;4991709;28;20640;-73
2023/10/28 10:24:13;;;;;;;2.33;0.60;;;16.80;99.90;;;;;;4991833;28;20585;-74
2023/10/28 10:26:39;;;;;;;1.77;0.60;;;17.40;99.90;;;;;;4991489;28;20637;-74
2023/10/28 10:29:05;;;;;;;1.50;0.70;;;17.90;99.90;;;;;;5005271;28;20194;-74
2023/10/28 10:31:33;;;;;;;2.17;0.83;;;18.50;99.90;;;;;;4991730;28;20681;-74
2023/10/28 10:34:05;;;;;;;2.30;0.60;;;19.10;99.90;;;;;;4991867;28;20649;-74
2023/10/28 10:36:40;;;;;;;1.63;0.70;;;19.60;99.90;;;;;;4989536;28;20944;-74
2023/10/28 10:39:11;;;;;;;2.00;0.60;;;20.10;99.90;;;;;;4992764;28;20918;-74
2023/10/28 10:41:37;;;;;;;2.83;0.70;;;20.30;99.90;;;;;;4985738;28;20618;-73
2023/10/28 10:44:28;;;;;;;1.40;0.60;;;20.40;99.90;;;;;;4967171;28;20579;-73
2023/10/28 10:46:56;;;;;;;3.37;0.87;;;20.30;99.90;;;;;;4991074;28;20644;-73
2023/10/28 10:49:22;;;;;;;2.53;0.70;;;20.20;99.90;;;;;;5007733;28;20673;-73
2023/10/28 10:51:49;;;;;;;3.83;0.60;;;20.00;99.90;;;;;;4992266;28;21330;-73
2023/10/28 10:54:18;;;;;;;5.10;1.00;;;19.80;99.90;;;;;;4986035;28;20241;-72
2023/10/28 10:56:45;;;;;;;2.03;0.80;;;19.50;99.90;;;;;;4971303;28;20621;-72
2023/10/28 10:59:12;;;;;;;4.80;1.00;;;19.30;99.90;;;;;;4989531;28;20606;-72
2023/10/28 11:01:40;;;;;;;6.80;1.00;;;19.10;99.90;;;;;;4984923;28;20633;-72
2023/10/28 11:04:07;;;;;;;7.63;1.43;;;19.00;99.90;;;;;;4979145;28;20706;-75
2023/10/28 11:06:34;;;;;;;4.83;1.30;;;18.80;99.90;;;;;;4990425;28;20638;-73
2023/10/28 11:09:05;;;;;;;5.83;1.10;;;18.70;99.90;;;;;;4987522;28;21120;-73
2023/10/28 11:11:35;;;;;;;3.73;0.83;;;18.60;99.90;;;;;;4973598;28;20630;-73
2023/10/28 11:14:02;;;;;;;3.67;0.90;;;18.50;99.90;;;;;;4978136;28;20595;-74
2023/10/28 11:16:29;;;;;;;3.90;1.07;;;18.50;99.90;;;;;;4979471;28;20577;-74
2023/10/28 11:18:55;;;;;;;3.50;1.00;;;18.50;99.90;;;;;;4982744;28;20598;-73
2023/10/28 11:21:24;;;;;;;2.50;1.10;;;18.50;99.90;;;;;;4982413;28;20618;-73
2023/10/28 11:23:51;;;;;;;6.77;1.17;;;18.50;99.90;;;;;;4987928;28;20189;-73
2023/10/28 11:26:21;;;;;;;3.10;0.93;;;18.60;99.90;;;;;;4983406;28;20631;-74
2023/10/28 11:28:47;;;;;;;3.50;1.13;;;18.70;99.90;;;;;;4990176;28;20594;-74
2023/10/28 11:31:13;;;;;;;5.83;1.13;;;18.80;99.90;;;;;;4990515;28;20610;-73
2023/10/28 11:33:43;;;;;;;7.43;1.20;;;18.90;99.90;;;;;;4983724;28;20617;-73
2023/10/28 11:36:09;;;;;;;4.77;1.27;;;18.90;99.90;;;;;;4990553;28;20825;-73
2023/10/28 11:38:35;;;;;;;5.53;0.97;;;18.90;99.90;;;;;;4974000;28;20590;-73
2023/10/28 11:41:06;;;;;;;3.17;0.90;;;18.80;99.90;;;;;;4991603;28;20214;-76
2023/10/28 11:43:36;;;;;;;5.07;1.00;;;18.80;99.90;;;;;;4991944;28;20273;-76
2023/10/28 11:46:02;;;;;;;9.33;2.03;;;18.70;99.90;;;;;;4990093;28;20640;-77
2023/10/28 11:48:28;;;;;;;4.80;0.80;;;18.70;99.90;;;;;;5006473;28;20574;-76
2023/10/28 11:50:54;;;;;;;3.57;1.23;;;18.70;99.90;;;;;;4990673;28;20629;-77
2023/10/28 11:53:24;;;;;;;2.27;0.90;;;18.60;99.90;;;;;;4986071;28;20201;-76
2023/10/28 11:55:50;;;;;;;7.30;1.37;;;18.70;99.90;;;;;;4989994;28;20590;-77
2023/10/28 11:58:20;;;;;;;5.53;1.00;;;18.70;99.90;;;;;;4972960;28;20598;-78
2023/10/28 12:00:50;;;;;;;4.90;1.13;;;18.80;99.90;;;;;;4965742;28;21261;-77
2023/10/28 12:03:17;;;;;;;2.80;1.03;;;18.80;99.90;;;;;;4989847;28;20603;-78
2023/10/28 12:05:43;;;;;;;3.83;1.00;;;18.80;99.90;;;;;;4983803;28;20935;-76
2023/10/28 12:08:11;;;;;;;2.80;0.80;;;18.80;99.90;;;;;;4984478;28;20702;-76
2023/10/28 12:10:43;;;;;;;3.17;1.00;;;18.70;99.90;;;;;;4973626;28;20642;-76
2023/10/28 12:13:12;;;;;;;3.03;1.33;;;18.70;99.90;;;;;;4989403;28;20593;-76
2023/10/28 12:15:39;;;;;;;3.30;1.00;;;18.70;99.90;;;;;;4982756;28;20654;-78
2023/10/28 12:18:06;;;;;;;6.00;2.10;;;18.80;99.90;;;;;;4983562;28;20640;-76
2023/10/28 12:20:32;;;;;;;4.50;0.90;;;18.70;99.90;;;;;;4974832;28;20672;-76
2023/10/28 12:22:57;;;;;;;1.80;0.70;;;18.70;99.90;;;;;;4989781;28;20593;-77
2023/10/28 12:25:24;;;;;;;3.00;0.90;;;18.60;99.90;;;;;;4991097;28;20186;-77
2023/10/28 12:27:50;;;;;;;2.90;0.90;;;18.60;99.90;;;;;;4973391;28;20237;-78
2023/10/28 12:30:16;;;;;;;2.60;0.90;;;18.50;99.90;;;;;;4985132;28;20717;-77
2023/10/28 12:32:42;;;;;;;4.70;1.10;;;18.40;99.90;;;;;;4985555;28;20987;-77
2023/10/28 12:35:08;;;;;;;3.60;0.90;;;18.40;99.90;;;;;;4965822;28;20649;-78
2023/10/28 12:37:34;;;;;;;2.73;0.83;;;18.30;99.90;;;;;;4989268;28;20666;-78
2023/10/28 12:40:00;;;;;;;4.93;2.03;;;18.20;99.90;;;;;;4991053;28;20681;-78
2023/10/28 12:42:27;;;;;;;4.20;0.80;;;18.20;99.90;;;;;;4988585;28;20594;-78
2023/10/28 12:44:53;;;;;;;3.67;0.80;;;18.20;99.90;;;;;;4973471;28;20598;-77
2023/10/28 12:47:18;;;;;;;2.80;1.10;;;18.20;99.90;;;;;;4989214;28;21215;-77